createdAt,value
2018-05-06T00:01:33.109Z,102677.42
2018-05-06T00:04:37.197Z,102675.41
2018-05-06T00:07:40.498Z,102668.69
2018-05-06T00:10:43.814Z,102667.10
2018-05-06T00:13:47.882Z,102662.77
2018-05-06T00:16:51.193Z,102665.48
2018-05-06T00:19:54.480Z,102656.93
2018-05-06T00:22:57.789Z,102656.93
2018-05-06T00:26:01.104Z,102656.84
2018-05-06T00:29:04.397Z,102655.27
2018-05-06T00:32:07.712Z,102650.85
2018-05-06T00:35:11.775Z,102652.23
2018-05-06T00:38:15.085Z,102655.52
2018-05-06T00:41:18.385Z,102653.58
2018-05-06T00:44:21.700Z,102663.70
2018-05-06T00:47:24.993Z,102668.36
2018-05-06T00:50:28.301Z,102667.95
2018-05-06T00:53:31.599Z,102664.97
2018-05-06T00:56:35.672Z,102664.28
2018-05-06T00:59:39.009Z,102670.98
2018-05-06T01:02:43.077Z,102668.44
2018-05-06T01:05:46.389Z,102664.72
2018-05-06T01:08:49.705Z,102668.09
2018-05-06T01:11:53.001Z,102670.39
2018-05-06T01:14:56.304Z,102668.44
2018-05-06T01:18:00.372Z,102671.16
2018-05-06T01:21:03.678Z,102664.72
2018-05-06T01:24:07.012Z,102665.55
2018-05-06T01:27:11.081Z,102666.06
2018-05-06T01:30:14.411Z,102666.14
2018-05-06T01:33:17.705Z,102670.64
2018-05-06T01:36:21.029Z,102670.12
2018-05-06T01:39:24.332Z,102669.46
2018-05-06T01:42:27.657Z,102667.58
2018-05-06T01:45:30.958Z,102674.52
2018-05-06T01:48:34.276Z,102679.02
2018-05-06T01:51:37.577Z,102684.61
2018-05-06T01:54:40.993Z,102686.03
2018-05-06T01:57:45.058Z,102686.89
2018-05-06T02:00:48.412Z,102684.61
2018-05-06T02:03:51.705Z,102683.75
2018-05-06T02:06:55.793Z,102687.16
2018-05-06T02:09:59.087Z,102684.84
2018-05-06T02:13:02.424Z,102680.12
2018-05-06T02:16:06.501Z,102686.53
2018-05-06T02:19:09.818Z,102683.00
2018-05-06T02:22:13.890Z,102680.95
2018-05-06T02:25:17.310Z,102685.26
2018-05-06T02:28:20.616Z,102691.18
2018-05-06T02:31:23.944Z,102683.71
2018-05-06T02:34:27.241Z,102686.78
2018-05-06T02:37:30.557Z,102683.22
2018-05-06T02:40:33.853Z,102682.45
2018-05-06T02:43:37.158Z,102677.53
2018-05-06T02:46:40.481Z,102673.53
2018-05-06T02:49:43.781Z,102670.03
2018-05-06T02:52:47.110Z,102664.86
2018-05-06T02:55:51.176Z,102662.58
2018-05-06T02:58:54.496Z,102662.41
2018-05-06T03:01:57.798Z,102660.95
2018-05-06T03:05:01.106Z,102655.25
2018-05-06T03:08:05.196Z,102655.08
2018-05-06T03:11:08.493Z,102660.83
2018-05-06T03:14:11.805Z,102657.09
2018-05-06T03:17:15.119Z,102657.16
2018-05-06T03:20:19.202Z,102656.20
2018-05-06T03:23:22.505Z,102657.45
2018-05-06T03:26:25.833Z,102660.33
2018-05-06T03:29:29.126Z,102670.69
2018-05-06T03:32:33.205Z,102668.38
2018-05-06T03:35:36.501Z,102665.92
2018-05-06T03:38:39.812Z,102664.30
2018-05-06T03:41:43.876Z,102658.45
2018-05-06T03:44:47.213Z,102658.30
2018-05-06T03:47:50.508Z,102663.05
2018-05-06T03:50:53.833Z,102671.06
2018-05-06T03:53:57.893Z,102676.28
2018-05-06T03:57:18.866Z,102677.30
2018-05-06T04:00:40.046Z,102683.58
2018-05-06T04:03:43.347Z,102681.03
2018-05-06T04:06:46.645Z,102688.13
2018-05-06T04:09:49.958Z,102688.03
2018-05-06T04:12:54.034Z,102688.73
2018-05-06T04:15:57.343Z,102694.25
2018-05-06T04:19:00.671Z,102702.38
2018-05-06T04:22:04.726Z,102700.47
2018-05-06T04:25:08.040Z,102700.12
2018-05-06T04:28:12.858Z,102698.61
2018-05-06T04:31:16.184Z,102693.56
2018-05-06T04:34:19.481Z,102689.38
2018-05-06T04:37:22.797Z,102690.92
2018-05-06T04:40:26.853Z,102692.48
2018-05-06T04:43:30.164Z,102694.23
2018-05-06T04:46:33.469Z,102692.89
2018-05-06T04:49:36.776Z,102700.47
2018-05-06T04:52:40.087Z,102699.39
2018-05-06T04:55:44.160Z,102700.58
2018-05-06T04:58:47.481Z,102703.05
2018-05-06T05:01:50.781Z,102713.39
2018-05-06T05:04:54.081Z,102714.83
2018-05-06T05:07:57.396Z,102714.28
2018-05-06T05:11:01.452Z,102712.33
2018-05-06T05:14:04.790Z,102716.97
2018-05-06T05:17:08.114Z,102708.31
2018-05-06T05:20:11.482Z,102709.20
2018-05-06T05:23:14.748Z,102705.61
2018-05-06T05:26:18.058Z,102697.92
2018-05-06T05:29:21.357Z,102697.43
2018-05-06T05:32:24.674Z,102692.67
2018-05-06T05:35:27.981Z,102680.03
2018-05-06T05:38:32.084Z,102678.14
2018-05-06T05:41:35.385Z,102683.73
2018-05-06T05:44:39.464Z,102687.46
2018-05-06T05:47:42.809Z,102693.39
2018-05-06T05:50:46.880Z,102686.53
2018-05-06T05:53:50.198Z,102694.86
2018-05-06T05:56:53.506Z,102693.58
2018-05-06T05:59:57.598Z,102706.20
2018-05-06T06:03:00.901Z,102711.91
2018-05-06T06:06:04.224Z,102717.56
2018-05-06T06:09:08.302Z,102721.91
2018-05-06T06:12:11.616Z,102717.89
2018-05-06T06:15:14.920Z,102713.41
2018-05-06T06:18:19.010Z,102716.70
2018-05-06T06:21:22.322Z,102710.59
2018-05-06T06:24:25.704Z,102710.47
2018-05-06T06:27:28.967Z,102713.66
2018-05-06T06:30:33.040Z,102709.72
2018-05-06T06:33:37.137Z,102711.95
2018-05-06T06:36:40.446Z,102718.73
2018-05-06T06:39:43.778Z,102711.05
2018-05-06T06:42:47.089Z,102716.05
2018-05-06T06:45:50.416Z,102715.17
2018-05-06T06:48:53.723Z,102714.96
2018-05-06T06:51:57.056Z,102717.11
2018-05-06T06:55:00.376Z,102708.52
2018-05-06T06:58:03.697Z,102700.87
2018-05-06T07:01:07.005Z,102702.18
2018-05-06T07:04:10.329Z,102703.89
2018-05-06T07:07:14.401Z,102707.17
2018-05-06T07:10:17.713Z,102703.42
2018-05-06T07:13:21.018Z,102702.51
2018-05-06T07:16:24.368Z,102710.94
2018-05-06T07:19:27.666Z,102707.78
2018-05-06T07:22:30.983Z,102711.77
2018-05-06T07:25:34.276Z,102704.41
2018-05-06T07:28:37.593Z,102709.33
2018-05-06T07:31:40.928Z,102703.48
2018-05-06T07:34:44.233Z,102703.98
2018-05-06T07:37:47.570Z,102704.08
2018-05-06T07:40:50.873Z,102707.86
2018-05-06T07:43:54.197Z,102710.32
2018-05-06T07:46:58.277Z,102703.41
2018-05-06T07:50:01.589Z,102713.91
2018-05-06T07:53:04.897Z,102714.89
2018-05-06T07:56:08.984Z,102712.29
2018-05-06T07:59:12.295Z,102713.36
2018-05-06T08:02:15.610Z,102720.41
2018-05-06T08:05:19.680Z,102719.23
2018-05-06T08:08:23.001Z,102722.44
2018-05-06T08:11:26.308Z,102728.47
2018-05-06T08:14:29.645Z,102724.03
2018-05-06T08:17:32.967Z,102727.22
2018-05-06T08:20:36.276Z,102726.55
2018-05-06T08:23:39.592Z,102724.75
2018-05-06T08:26:43.680Z,102725.81
2018-05-06T08:29:46.997Z,102718.98
2018-05-06T08:32:50.320Z,102720.45
2018-05-06T08:35:54.391Z,102725.14
2018-05-06T08:38:57.714Z,102721.15
2018-05-06T08:42:01.017Z,102719.25
2018-05-06T08:45:05.096Z,102725.88
2018-05-06T08:48:08.396Z,102731.37
2018-05-06T08:51:11.713Z,102720.56
2018-05-06T08:54:15.009Z,102720.59
2018-05-06T08:57:18.321Z,102719.92
2018-05-06T09:00:22.438Z,102715.31
2018-05-06T09:03:26.505Z,102717.68
2018-05-06T09:06:29.820Z,102711.26
2018-05-06T09:09:33.120Z,102718.23
2018-05-06T09:12:36.441Z,102714.94
2018-05-06T09:15:40.512Z,102709.28
2018-05-06T09:18:43.849Z,102713.36
2018-05-06T09:21:47.921Z,102701.21
2018-05-06T09:24:51.249Z,102700.88
2018-05-06T09:27:54.563Z,102698.70
2018-05-06T09:30:58.645Z,102699.95
2018-05-06T09:34:01.958Z,102695.76
2018-05-06T09:37:06.045Z,102686.37
2018-05-06T09:40:09.367Z,102685.70
2018-05-06T09:43:12.681Z,102681.66
2018-05-06T09:46:16.777Z,102687.68
2018-05-06T09:49:20.085Z,102687.53
2018-05-06T09:52:23.401Z,102688.73
2018-05-06T09:55:26.726Z,102689.45
2018-05-06T09:58:30.045Z,102685.72
2018-05-06T10:01:33.354Z,102686.66
2018-05-06T10:04:36.713Z,102681.59
2018-05-06T10:07:40.023Z,102678.86
2018-05-06T10:10:43.348Z,102683.23
2018-05-06T10:13:46.654Z,102676.69
2018-05-06T10:16:50.752Z,102677.97
2018-05-06T10:19:54.075Z,102677.75
2018-05-06T10:22:58.160Z,102673.92
2018-05-06T10:26:01.463Z,102673.69
2018-05-06T10:29:04.784Z,102673.89
2018-05-06T10:32:08.873Z,102662.59
2018-05-06T10:35:12.180Z,102664.08
2018-05-06T10:38:15.502Z,102661.84
2018-05-06T10:41:18.817Z,102664.15
2018-05-06T10:44:22.194Z,102660.08
2018-05-06T10:47:25.453Z,102652.22
2018-05-06T10:50:29.575Z,102641.86
2018-05-06T10:53:32.876Z,102638.05
2018-05-06T10:56:36.201Z,102641.73
2018-05-06T10:59:39.504Z,102634.81
2018-05-06T11:02:42.837Z,102634.00
2018-05-06T11:05:46.142Z,102626.08
2018-05-06T11:08:49.469Z,102618.68
2018-05-06T11:11:53.546Z,102621.45
2018-05-06T11:14:56.857Z,102616.67
2018-05-06T11:18:00.195Z,102612.50
2018-05-06T11:21:03.501Z,102612.61
2018-05-06T11:24:06.813Z,102615.11
2018-05-06T11:27:10.117Z,102614.00
2018-05-06T11:30:13.429Z,102620.30
2018-05-06T11:33:16.754Z,102620.59
2018-05-06T11:36:20.846Z,102612.53
2018-05-06T11:39:24.149Z,102619.95
2018-05-06T11:42:27.478Z,102617.72
2018-05-06T11:45:30.777Z,102614.75
2018-05-06T11:48:34.091Z,102612.24
2018-05-06T11:51:37.405Z,102612.41
2018-05-06T11:54:40.716Z,102605.93
2018-05-06T11:57:44.056Z,102603.98
2018-05-06T12:00:48.133Z,102611.48
2018-05-06T12:03:51.482Z,102610.72
2018-05-06T12:06:54.780Z,102606.08
2018-05-06T12:09:58.128Z,102596.03
2018-05-06T12:13:01.439Z,102602.55
2018-05-06T12:16:04.830Z,102594.73
2018-05-06T12:19:08.842Z,102596.63
2018-05-06T12:22:12.149Z,102586.92
2018-05-06T12:25:16.245Z,102581.88
2018-05-06T12:28:19.556Z,102585.61
2018-05-06T12:31:22.884Z,102578.07
2018-05-06T12:34:26.192Z,102575.03
2018-05-06T12:37:29.520Z,102572.27
2018-05-06T12:40:32.834Z,102562.53
2018-05-06T12:43:36.168Z,102563.24
2018-05-06T12:46:39.474Z,102556.53
2018-05-06T12:49:42.804Z,102553.31
2018-05-06T12:52:46.104Z,102552.30
2018-05-06T12:55:49.444Z,102548.25
2018-05-06T12:58:52.749Z,102545.06
2018-05-06T13:01:56.071Z,102541.66
2018-05-06T13:04:59.401Z,102536.27
2018-05-06T13:08:02.715Z,102544.06
2018-05-06T13:11:06.821Z,102540.58
2018-05-06T13:14:10.145Z,102539.36
2018-05-06T13:17:13.571Z,102535.84
2018-05-06T13:20:16.875Z,102529.23
2018-05-06T13:23:20.182Z,102532.20
2018-05-06T13:26:23.499Z,102529.06
2018-05-06T13:29:26.809Z,102525.61
2018-05-06T13:32:30.126Z,102523.56
2018-05-06T13:35:33.449Z,102515.32
2018-05-06T13:38:36.753Z,102519.64
2018-05-06T13:41:40.072Z,102508.55
2018-05-06T13:44:43.377Z,102508.39
2018-05-06T13:47:46.705Z,102512.30
2018-05-06T13:50:50.778Z,102503.32
2018-05-06T13:53:54.109Z,102505.55
2018-05-06T13:56:58.173Z,102502.13
2018-05-06T14:00:01.501Z,102500.31
2018-05-06T14:03:04.812Z,102503.40
2018-05-06T14:06:08.908Z,102501.89
2018-05-06T14:09:12.211Z,102499.39
2018-05-06T14:12:15.541Z,102503.98
2018-05-06T14:15:18.849Z,102503.98
2018-05-06T14:18:22.178Z,102504.13
2018-05-06T14:21:25.494Z,102502.13
2018-05-06T14:24:28.825Z,102492.48
2018-05-06T14:27:32.136Z,102493.17
2018-05-06T14:30:35.489Z,102486.05
2018-05-06T14:33:38.794Z,102485.78
2018-05-06T14:36:42.880Z,102482.20
2018-05-06T14:39:46.189Z,102479.54
2018-05-06T14:42:49.508Z,102483.20
2018-05-06T14:45:53.585Z,102481.73
2018-05-06T14:48:56.913Z,102475.36
2018-05-06T14:52:00.217Z,102476.78
2018-05-06T14:55:04.307Z,102464.02
2018-05-06T14:58:07.622Z,102472.12
2018-05-06T15:01:11.709Z,102468.73
2018-05-06T15:04:15.014Z,102467.40
2018-05-06T15:07:18.354Z,102463.55
2018-05-06T15:10:21.729Z,102456.61
2018-05-06T15:13:25.005Z,102457.77
2018-05-06T15:16:28.323Z,102454.14
2018-05-06T15:19:32.425Z,102456.91
2018-05-06T15:22:35.724Z,102451.31
2018-05-06T15:25:39.034Z,102450.75
2018-05-06T15:28:43.105Z,102443.91
2018-05-06T15:31:46.450Z,102440.94
2018-05-06T15:34:50.512Z,102436.77
2018-05-06T15:37:53.851Z,102430.84
2018-05-06T15:40:57.925Z,102436.72
2018-05-06T15:44:01.237Z,102428.64
2018-05-06T15:47:04.553Z,102426.05
2018-05-06T15:50:07.853Z,102416.73
2018-05-06T15:53:11.936Z,102415.83
2018-05-06T15:56:15.244Z,102421.60
2018-05-06T15:59:18.579Z,102420.17
2018-05-06T16:02:53.062Z,102413.00
2018-05-06T16:05:56.404Z,102418.36
2018-05-06T16:08:59.713Z,102411.98
2018-05-06T16:12:03.125Z,102413.91
2018-05-06T16:15:06.340Z,102415.59
2018-05-06T16:18:09.649Z,102413.26
2018-05-06T16:21:12.969Z,102405.73
2018-05-06T16:24:17.036Z,102407.31
2018-05-06T16:27:20.349Z,102399.08
2018-05-06T16:30:23.649Z,102394.87
2018-05-06T16:33:26.958Z,102392.28
2018-05-06T16:36:30.274Z,102388.41
2018-05-06T16:39:34.336Z,102386.27
2018-05-06T16:42:37.653Z,102380.84
2018-05-06T16:45:41.010Z,102377.98
2018-05-06T16:48:45.060Z,102379.61
2018-05-06T16:51:48.366Z,102379.02
2018-05-06T16:54:53.298Z,102380.22
2018-05-06T16:57:56.605Z,102373.13
2018-05-06T17:00:59.938Z,102373.07
2018-05-06T17:04:03.237Z,102378.39
2018-05-06T17:07:06.548Z,102380.77
2018-05-06T17:10:09.849Z,102374.14
2018-05-06T17:13:13.177Z,102373.04
2018-05-06T17:16:16.486Z,102377.77
2018-05-06T17:19:19.806Z,102370.95
2018-05-06T17:22:23.873Z,102367.98
2018-05-06T17:25:27.190Z,102369.45
2018-05-06T17:28:30.485Z,102368.97
2018-05-06T17:31:33.804Z,102373.03
2018-05-06T17:34:37.882Z,102373.55
2018-05-06T17:37:41.203Z,102377.78
2018-05-06T17:40:45.304Z,102375.10
2018-05-06T17:43:48.604Z,102376.31
2018-05-06T17:46:51.931Z,102370.37
2018-05-06T17:49:55.242Z,102376.34
2018-05-06T17:52:58.562Z,102383.20
2018-05-06T17:56:01.858Z,102369.86
2018-05-06T17:59:05.181Z,102377.27
2018-05-06T18:02:08.505Z,102371.89
2018-05-06T18:05:12.572Z,102367.17
2018-05-06T18:08:15.885Z,102366.30
2018-05-06T18:11:19.223Z,102365.80
2018-05-06T18:14:22.530Z,102367.77
2018-05-06T18:17:25.871Z,102369.54
2018-05-06T18:20:29.169Z,102370.73
2018-05-06T18:23:32.481Z,102374.46
2018-05-06T18:26:35.821Z,102373.25
2018-05-06T18:29:39.121Z,102366.02
2018-05-06T18:32:42.446Z,102376.95
2018-05-06T18:35:45.745Z,102372.39
2018-05-06T18:38:49.061Z,102381.53
2018-05-06T18:41:52.366Z,102380.34
2018-05-06T18:44:56.453Z,102374.07
2018-05-06T18:47:59.756Z,102381.51
2018-05-06T18:51:03.088Z,102370.77
2018-05-06T18:54:07.160Z,102375.87
2018-05-06T18:57:10.496Z,102375.91
2018-05-06T19:00:14.571Z,102374.69
2018-05-06T19:03:17.917Z,102376.73
2018-05-06T19:06:21.222Z,102380.52
2018-05-06T19:09:24.529Z,102377.39
2018-05-06T19:12:27.850Z,102370.42
2018-05-06T19:15:31.155Z,102372.72
2018-05-06T19:18:34.479Z,102362.16
2018-05-06T19:21:38.550Z,102367.74
2018-05-06T19:24:41.869Z,102366.33
2018-05-06T19:27:45.165Z,102372.86
2018-05-06T19:30:48.501Z,102367.48
2018-05-06T19:33:51.798Z,102363.87
2018-05-06T19:36:55.110Z,102370.26
2018-05-06T19:39:58.421Z,102370.08
2018-05-06T19:43:01.737Z,102370.12
2018-05-06T19:46:05.037Z,102370.49
2018-05-06T19:49:08.350Z,102382.16
2018-05-06T19:52:11.649Z,102377.03
2018-05-06T19:55:15.012Z,102379.72
2018-05-06T19:58:18.312Z,102383.14
2018-05-06T20:01:21.637Z,102380.78
2018-05-06T20:04:25.174Z,102375.97
2018-05-06T20:07:28.561Z,102374.33
2018-05-06T20:10:31.830Z,102378.47
2018-05-06T20:13:35.149Z,102372.50
2018-05-06T20:16:39.237Z,102374.09
2018-05-06T20:19:42.562Z,102371.25
2018-05-06T20:22:46.644Z,102370.09
2018-05-06T20:25:49.964Z,102370.23
2018-05-06T20:28:54.029Z,102372.04
2018-05-06T20:31:57.357Z,102370.89
2018-05-06T20:35:00.661Z,102368.23
2018-05-06T20:38:03.985Z,102363.11
2018-05-06T20:41:07.286Z,102361.95
2018-05-06T20:44:10.610Z,102360.66
2018-05-06T20:47:13.910Z,102367.94
2018-05-06T20:50:17.226Z,102366.70
2018-05-06T20:53:20.541Z,102371.85
2018-05-06T20:56:23.850Z,102365.65
2018-05-06T20:59:27.937Z,102372.84
2018-05-06T21:02:31.237Z,102367.80
2018-05-06T21:05:34.558Z,102363.27
2018-05-06T21:08:38.635Z,102355.56
2018-05-06T21:11:41.945Z,102352.31
2018-05-06T21:14:45.253Z,102345.68
2018-05-06T21:17:48.580Z,102347.58
2018-05-06T21:20:51.883Z,102348.86
2018-05-06T21:23:55.205Z,102344.67
2018-05-06T21:26:58.513Z,102353.32
2018-05-06T21:30:01.839Z,102352.05
2018-05-06T21:33:05.992Z,102349.00
2018-05-06T21:36:09.245Z,102352.77
2018-05-06T21:39:12.593Z,102343.30
2018-05-06T21:42:16.649Z,102354.21
2018-05-06T21:45:19.956Z,102353.17
2018-05-06T21:48:24.051Z,102346.92
2018-05-06T21:51:27.357Z,102349.88
2018-05-06T21:54:30.738Z,102347.14
2018-05-06T21:57:34.006Z,102342.52
2018-05-06T22:00:37.368Z,102348.63
2018-05-06T22:03:41.433Z,102346.83
2018-05-06T22:06:44.757Z,102352.74
2018-05-06T22:09:48.070Z,102351.59
2018-05-06T22:12:52.148Z,102358.54
2018-05-06T22:15:55.440Z,102356.36
2018-05-06T22:18:58.761Z,102350.03
2018-05-06T22:22:02.075Z,102350.46
2018-05-06T22:25:06.143Z,102346.70
2018-05-06T22:28:09.469Z,102343.12
2018-05-06T22:31:12.765Z,102345.55
2018-05-06T22:34:16.116Z,102337.98
2018-05-06T22:37:19.404Z,102340.61
2018-05-06T22:40:22.714Z,102340.22
2018-05-06T22:43:26.034Z,102339.79
2018-05-06T22:46:29.332Z,102336.97
2018-05-06T22:49:32.645Z,102333.89
2018-05-06T22:52:35.969Z,102333.47
2018-05-06T22:55:40.056Z,102336.41
2018-05-06T22:58:43.361Z,102339.27
2018-05-06T23:01:46.689Z,102328.67
2018-05-06T23:04:49.985Z,102330.12
2018-05-06T23:07:53.321Z,102333.83
2018-05-06T23:10:56.629Z,102331.27
2018-05-06T23:13:59.943Z,102331.89
2018-05-06T23:17:03.246Z,102326.19
2018-05-06T23:20:07.328Z,102321.47
2018-05-06T23:23:10.638Z,102323.45
2018-05-06T23:26:13.962Z,102324.08
2018-05-06T23:29:18.068Z,102317.73
2018-05-06T23:32:21.379Z,102328.22
2018-05-06T23:35:25.450Z,102321.61
2018-05-06T23:38:28.769Z,102324.73
2018-05-06T23:41:32.081Z,102313.67
2018-05-06T23:44:36.162Z,102317.34
2018-05-06T23:47:39.473Z,102316.89
2018-05-06T23:50:42.799Z,102314.02
2018-05-06T23:53:46.128Z,102312.54
2018-05-06T23:56:49.429Z,102311.96
2018-05-06T23:59:52.765Z,102306.60
